Time;durP1;ratioP1;P1;durP2;ratioP2;P2;SDS_P1;SDS_P2;PMS_P1;PMS_P2;Temp;Humidity;BMP_temperature;BMP_pressure;BME280_temperature;BME280_humidity;BME280_pressure;Samples;Min_cycle;Max_cycle;Signal;HPM_P1;HPM_P2
2023/07/02 00:02:08;;;;;;;14.40;9.90;;;;;;;19.70;69.78;99739.61;1793411;79;21872;-55
2023/07/02 00:05:17;;;;;;;10.30;9.30;;;;;;;19.71;69.87;99737.69;1802980;79;21339;-55
2023/07/02 00:08:22;;;;;;;13.08;10.28;;;;;;;19.72;69.92;99743.53;1802759;78;21324;-55
2023/07/02 00:11:28;;;;;;;12.35;10.18;;;;;;;19.73;70.01;99741.89;1801588;79;21432;-54
2023/07/02 00:14:34;;;;;;;14.50;9.98;;;;;;;19.74;70.09;99739.39;1802080;78;21746;-54
2023/07/02 00:17:40;;;;;;;11.80;9.48;;;;;;;19.75;70.15;99740.25;1802098;79;21374;-55
2023/07/02 00:20:48;;;;;;;11.18;9.98;;;;;;;19.76;70.25;99741.92;1802480;79;21825;-55
2023/07/02 00:23:59;;;;;;;10.98;9.53;;;;;;;19.77;70.32;99740.84;1802080;79;21872;-55
2023/07/02 00:27:05;;;;;;;12.73;10.53;;;;;;;19.78;70.36;99743.38;1802125;79;21442;-55
2023/07/02 00:30:14;;;;;;;11.30;10.18;;;;;;;19.79;70.46;99738.10;1802790;79;21896;-55
2023/07/02 00:33:19;;;;;;;12.07;10.60;;;;;;;19.81;70.52;99750.34;1791947;79;21341;-55
2023/07/02 00:36:26;;;;;;;12.60;10.32;;;;;;;19.81;70.57;99742.87;1802676;79;21363;-55
2023/07/02 00:39:31;;;;;;;16.80;10.43;;;;;;;19.81;70.62;99749.81;1802108;79;21359;-55
2023/07/02 00:42:40;;;;;;;13.72;10.35;;;;;;;19.81;70.67;99753.12;1802395;79;21907;-56
2023/07/02 00:45:47;;;;;;;12.43;10.08;;;;;;;19.82;70.72;99756.22;1802330;79;21665;-56
2023/07/02 00:48:58;;;;;;;11.15;9.88;;;;;;;19.81;70.79;99756.75;1802226;79;21369;-55
2023/07/02 00:52:05;;;;;;;10.48;9.38;;;;;;;19.81;70.84;99753.98;1802280;78;21410;-55
2023/07/02 00:55:11;;;;;;;12.05;10.85;;;;;;;19.82;70.90;99764.55;1802081;78;22260;-55
2023/07/02 00:58:20;;;;;;;14.30;10.25;;;;;;;19.82;70.96;99763.98;1802150;79;21328;-55
2023/07/02 01:01:33;;;;;;;14.07;11.38;;;;;;;19.82;71.01;99760.39;1802179;79;21383;-55
2023/07/02 01:04:38;;;;;;;11.60;9.80;;;;;;;19.82;71.09;99754.83;1802394;79;21418;-55
2023/07/02 01:07:45;;;;;;;11.57;10.38;;;;;;;19.83;71.16;99762.06;1802272;79;21347;-55
2023/07/02 01:10:52;;;;;;;12.30;9.85;;;;;;;19.83;71.24;99755.97;1802304;78;21339;-54
2023/07/02 01:13:59;;;;;;;13.03;10.65;;;;;;;19.84;71.29;99758.18;1802287;78;21316;-55
2023/07/02 01:17:06;;;;;;;11.05;9.65;;;;;;;19.85;71.36;99761.27;1802395;78;22122;-55
2023/07/02 01:20:13;;;;;;;13.65;10.25;;;;;;;19.85;71.43;99759.88;1802052;79;21339;-54
2023/07/02 01:23:19;;;;;;;11.88;9.80;;;;;;;19.86;71.47;99750.44;1802303;78;21351;-55
2023/07/02 01:26:26;;;;;;;11.15;10.00;;;;;;;19.85;71.54;99750.98;1802355;78;21852;-54
2023/07/02 01:29:36;;;;;;;13.28;11.53;;;;;;;19.85;71.59;99757.92;1802532;79;21410;-54
2023/07/02 01:32:40;;;;;;;13.20;10.88;;;;;;;19.85;71.65;99755.15;1802140;79;21336;-55
2023/07/02 01:35:48;;;;;;;13.18;10.88;;;;;;;19.85;71.68;99757.11;1802048;79;21927;-55
2023/07/02 01:38:54;;;;;;;15.72;11.40;;;;;;;19.83;71.75;99755.97;1802167;79;21390;-54
2023/07/02 01:42:03;;;;;;;15.55;11.43;;;;;;;19.83;71.82;99756.50;1802213;79;21343;-55
2023/07/02 01:45:09;;;;;;;13.25;11.22;;;;;;;19.83;71.89;99764.84;1802066;79;21667;-53
2023/07/02 01:48:14;;;;;;;12.18;10.40;;;;;;;19.81;71.97;99756.75;1803366;79;21328;-55
2023/07/02 01:51:21;;;;;;;14.03;10.60;;;;;;;19.81;72.03;99756.75;1802327;79;21340;-55
2023/07/02 01:54:28;;;;;;;11.83;10.53;;;;;;;19.81;72.09;99760.07;1802042;79;21378;-55
2023/07/02 01:57:34;;;;;;;13.62;11.22;;;;;;;19.81;72.17;99758.69;1802132;79;21670;-55
2023/07/02 02:00:41;;;;;;;12.78;10.72;;;;;;;19.80;72.21;99755.08;1802147;79;21853;-55
2023/07/02 02:03:47;;;;;;;15.38;11.40;;;;;;;19.81;72.26;99753.12;1802236;78;21343;-54
2023/07/02 02:06:54;;;;;;;13.32;11.38;;;;;;;19.79;72.33;99758.11;1802129;79;21343;-55
2023/07/02 02:10:01;;;;;;;11.57;10.38;;;;;;;19.79;72.37;99746.44;1802151;79;21355;-54
2023/07/02 02:13:08;;;;;;;12.60;11.03;;;;;;;19.79;72.41;99750.59;1802123;79;21848;-55
2023/07/02 02:16:14;;;;;;;13.32;11.18;;;;;;;19.79;72.48;99751.17;1802281;78;21695;-55
2023/07/02 02:19:20;;;;;;;13.00;11.20;;;;;;;19.78;72.53;99747.54;1802184;79;21352;-54
2023/07/02 02:22:26;;;;;;;11.55;10.20;;;;;;;19.79;72.61;99749.78;1801979;79;21331;-54
2023/07/02 02:25:32;;;;;;;13.32;10.85;;;;;;;19.81;72.66;99758.69;1802059;79;21324;-54
2023/07/02 02:28:38;;;;;;;11.80;10.60;;;;;;;19.82;72.75;99752.05;1802152;79;21407;-54
2023/07/02 02:31:44;;;;;;;12.18;10.90;;;;;;;19.84;72.81;99752.62;1802277;78;21414;-55
2023/07/02 02:34:51;;;;;;;15.25;11.57;;;;;;;19.86;72.87;99751.30;1802145;79;21457;-54
2023/07/02 02:37:57;;;;;;;13.75;10.98;;;;;;;19.89;72.95;99749.94;1802057;78;21375;-54
2023/07/02 02:41:03;;;;;;;13.95;11.88;;;;;;;19.93;73.01;99751.95;1802073;79;21217;-54
2023/07/02 02:44:11;;;;;;;13.68;11.12;;;;;;;19.97;73.06;99745.36;1802264;78;21335;-54
2023/07/02 02:47:17;;;;;;;12.65;11.30;;;;;;;20.02;73.15;99744.05;1802057;79;21879;-54
2023/07/02 02:50:23;;;;;;;23.47;11.90;;;;;;;20.08;73.23;99744.43;1802124;79;21387;-54
2023/07/02 02:53:29;;;;;;;12.47;11.20;;;;;;;20.16;73.27;99756.55;1802215;79;21849;-55
2023/07/02 02:56:35;;;;;;;13.75;11.60;;;;;;;20.21;73.32;99746.91;1802462;79;21956;-55
2023/07/02 02:59:42;;;;;;;13.75;10.88;;;;;;;20.25;73.39;99750.84;1802673;79;21346;-55
2023/07/02 03:02:49;;;;;;;12.60;11.40;;;;;;;20.30;73.42;99750.94;1802367;78;21362;-55
2023/07/02 03:05:56;;;;;;;12.40;11.10;;;;;;;20.35;73.49;99755.19;1802280;79;21378;-55
2023/07/02 03:09:02;;;;;;;13.13;11.57;;;;;;;20.41;73.52;99751.39;1802659;79;21335;-54
2023/07/02 03:12:09;;;;;;;12.70;10.98;;;;;;;20.46;73.60;99763.45;1802194;79;21367;-55
2023/07/02 03:15:17;;;;;;;12.20;10.48;;;;;;;20.53;73.64;99763.27;1800548;79;21348;-55
2023/07/02 03:18:23;;;;;;;13.30;11.78;;;;;;;20.59;73.67;99758.07;1801979;79;21320;-54
2023/07/02 03:21:30;;;;;;;11.70;10.30;;;;;;;20.63;73.68;99758.69;1801662;78;21353;-54
2023/07/02 03:24:36;;;;;;;13.70;11.05;;;;;;;20.67;73.68;99760.41;1801622;79;21199;-54
2023/07/02 03:27:43;;;;;;;14.05;11.38;;;;;;;20.72;73.72;99762.70;1802097;79;21177;-54
2023/07/02 03:30:49;;;;;;;14.07;11.83;;;;;;;20.77;73.71;99768.91;1801967;79;21252;-54
2023/07/02 03:33:56;;;;;;;13.03;11.45;;;;;;;20.81;73.75;99764.50;1801585;79;21351;-54
2023/07/02 03:37:01;;;;;;;13.30;10.78;;;;;;;20.86;73.77;99768.75;1802121;78;21892;-54
2023/07/02 03:40:07;;;;;;;12.88;11.57;;;;;;;20.90;73.79;99762.13;1802055;78;21674;-54
2023/07/02 03:43:14;;;;;;;12.53;11.30;;;;;;;20.95;73.83;99766.38;1793359;79;21336;-54
2023/07/02 03:46:20;;;;;;;13.38;11.20;;;;;;;20.98;73.86;99760.33;1802161;79;21359;-54
2023/07/02 03:49:27;;;;;;;15.85;10.90;;;;;;;21.04;73.93;99760.11;1794994;79;21347;-54
2023/07/02 03:52:32;;;;;;;11.48;9.98;;;;;;;21.11;73.99;99775.22;1802048;79;21844;-55
2023/07/02 03:55:40;;;;;;;12.98;11.50;;;;;;;21.14;74.05;99775.55;1802207;79;21382;-54
2023/07/02 03:58:49;;;;;;;13.75;10.85;;;;;;;21.21;74.14;99783.72;1802171;79;21347;-54
2023/07/02 04:01:55;;;;;;;12.37;11.20;;;;;;;21.24;74.19;99789.62;1802176;79;21332;-55
2023/07/02 04:05:02;;;;;;;14.25;12.30;;;;;;;21.30;74.24;99784.39;1802264;78;21359;-55
2023/07/02 04:08:09;;;;;;;13.90;11.80;;;;;;;21.36;74.27;99786.13;1803119;79;21920;-55
2023/07/02 04:11:14;;;;;;;15.72;12.00;;;;;;;21.42;74.31;99785.09;1802185;79;21854;-55
2023/07/02 04:14:20;;;;;;;15.48;12.30;;;;;;;21.47;74.29;99785.15;1802238;79;21343;-56
2023/07/02 04:17:25;;;;;;;14.35;12.95;;;;;;;21.53;74.34;99794.42;1801047;79;21422;-55
2023/07/02 04:20:31;;;;;;;15.93;12.68;;;;;;;21.57;74.36;99801.98;1802730;79;21944;-57
2023/07/02 04:23:38;;;;;;;14.13;12.63;;;;;;;21.64;74.42;99799.86;1802466;79;21379;-56
2023/07/02 04:26:45;;;;;;;14.95;12.45;;;;;;;21.69;74.43;99805.45;1802458;79;21352;-56
2023/07/02 04:29:55;;;;;;;13.45;12.05;;;;;;;21.76;74.44;99810.31;1802075;78;21352;-56
2023/07/02 04:33:02;;;;;;;13.30;11.88;;;;;;;21.85;74.50;99802.34;1782028;79;21350;-55
2023/07/02 04:36:11;;;;;;;15.03;13.10;;;;;;;22.02;74.61;99808.06;1761376;80;21207;-54
2023/07/02 04:39:17;;;;;;;15.50;13.45;;;;;;;22.20;74.65;99805.44;1760868;80;21192;-55
2023/07/02 04:42:27;;;;;;;16.23;13.15;;;;;;;22.37;74.57;99808.11;1761178;80;21452;-56
2023/07/02 04:45:36;;;;;;;16.67;13.03;;;;;;;22.48;74.46;99805.69;1760884;80;21323;-56
2023/07/02 04:48:39;;;;;;;14.40;12.90;;;;;;;22.53;74.45;99803.83;1761422;80;21741;-57
2023/07/02 04:51:46;;;;;;;13.95;12.45;;;;;;;22.64;74.50;99813.09;1761640;81;21195;-56
2023/07/02 04:54:52;;;;;;;11.90;10.70;;;;;;;22.72;74.46;99798.65;1761472;81;21211;-56
2023/07/02 04:57:58;;;;;;;13.68;11.63;;;;;;;22.80;74.49;99796.17;1761445;80;21215;-57
2023/07/02 05:01:04;;;;;;;12.95;11.50;;;;;;;22.89;74.50;99791.78;1761435;81;21235;-57
2023/07/02 05:04:14;;;;;;;12.75;11.40;;;;;;;23.00;74.54;99789.88;1761527;81;21211;-57
2023/07/02 05:07:19;;;;;;;13.50;10.93;;;;;;;23.09;74.55;99799.41;1761710;80;21181;-56
2023/07/02 05:10:25;;;;;;;11.73;10.53;;;;;;;23.19;74.53;99798.08;1761462;80;21255;-57
2023/07/02 05:13:32;;;;;;;12.35;10.63;;;;;;;23.30;74.45;99791.45;1761449;80;21622;-57
2023/07/02 05:16:37;;;;;;;11.65;10.48;;;;;;;23.39;74.38;99791.20;1761452;81;21697;-57
2023/07/02 05:19:45;;;;;;;11.10;10.00;;;;;;;23.48;74.28;99789.59;1761536;80;21168;-57
2023/07/02 05:22:53;;;;;;;11.97;10.40;;;;;;;23.54;74.16;99788.48;1761560;81;21256;-56
2023/07/02 05:25:59;;;;;;;11.25;10.15;;;;;;;23.64;74.11;99790.74;1761417;80;21180;-56
2023/07/02 05:29:05;;;;;;;11.90;10.13;;;;;;;23.77;74.05;99787.98;1761372;80;21203;-57
2023/07/02 05:32:11;;;;;;;12.98;10.63;;;;;;;23.87;73.97;99785.76;1761438;81;21177;-57
2023/07/02 05:35:18;;;;;;;11.50;9.80;;;;;;;23.99;73.93;99792.80;1745568;81;21918;-56
2023/07/02 05:38:26;;;;;;;10.78;9.75;;;;;;;24.11;73.84;99793.39;1761497;81;21327;-57
2023/07/02 05:41:31;;;;;;;11.53;10.23;;;;;;;24.22;73.67;99799.83;1761488;81;21207;-57
2023/07/02 05:44:37;;;;;;;11.55;9.35;;;;;;;24.32;73.57;99803.48;1761456;81;21307;-59
2023/07/02 05:47:44;;;;;;;11.68;10.50;;;;;;;24.37;73.37;99793.67;1762019;80;21235;-58
2023/07/02 05:50:51;;;;;;;12.82;9.78;;;;;;;24.44;73.27;99791.99;1772573;79;21578;-61
2023/07/02 05:53:58;;;;;;;11.93;9.48;;;;;;;24.46;72.99;99796.20;1770117;79;21256;-61
2023/07/02 05:57:06;;;;;;;11.60;9.93;;;;;;;24.49;72.89;99791.45;1770178;80;21216;-60
2023/07/02 06:00:13;;;;;;;10.08;8.83;;;;;;;24.55;72.82;99798.71;1770041;79;21208;-60
2023/07/02 06:03:21;;;;;;;10.43;9.33;;;;;;;24.60;72.77;99790.31;1770385;80;21235;-60
2023/07/02 06:06:28;;;;;;;10.45;9.45;;;;;;;24.71;72.73;99786.97;1781605;80;21347;-60
2023/07/02 06:09:34;;;;;;;10.03;9.03;;;;;;;24.81;72.50;99793.41;1772112;79;22175;-61
2023/07/02 06:12:42;;;;;;;11.45;9.78;;;;;;;24.88;72.29;99789.73;1801907;79;21362;-62
2023/07/02 06:15:49;;;;;;;9.88;8.38;;;;;;;25.01;72.16;99786.89;1802059;79;21335;-59
2023/07/02 06:18:55;;;;;;;10.35;9.20;;;;;;;25.15;72.05;99784.35;1802927;78;21355;-60
2023/07/02 06:22:01;;;;;;;10.70;9.58;;;;;;;25.28;71.78;99782.31;1802386;79;21382;-60
2023/07/02 06:25:08;;;;;;;11.15;10.05;;;;;;;25.44;71.65;99783.97;1801865;79;21351;-61
2023/07/02 06:28:17;;;;;;;12.25;9.90;;;;;;;25.59;71.45;99776.34;1778303;79;21369;-60
2023/07/02 06:31:24;;;;;;;10.43;8.90;;;;;;;25.65;71.19;99779.95;1770448;79;21195;-61
2023/07/02 06:34:32;;;;;;;9.98;8.88;;;;;;;25.68;71.07;99780.77;1770453;81;21210;-61
2023/07/02 06:37:39;;;;;;;10.50;8.10;;;;;;;25.69;71.04;99778.25;1770305;79;21211;-61
2023/07/02 06:40:46;;;;;;;9.03;8.03;;;;;;;25.74;70.98;99775.40;1770711;80;21755;-60
2023/07/02 06:43:52;;;;;;;9.40;8.40;;;;;;;25.81;70.88;99778.73;1735426;81;21255;-61
2023/07/02 06:47:02;;;;;;;9.55;8.60;;;;;;;25.85;70.80;99761.58;1721327;83;21428;-60
2023/07/02 06:50:09;;;;;;;8.18;7.37;;;;;;;25.89;70.67;99771.95;1721345;83;21437;-61
2023/07/02 06:53:15;;;;;;;9.15;7.12;;;;;;;25.89;70.56;99765.50;1723081;82;22201;-60
2023/07/02 06:56:20;;;;;;;10.08;7.65;;;;;;;25.90;70.44;99769.97;1719966;82;21368;-61
2023/07/02 06:59:30;;;;;;;7.87;7.12;;;;;;;25.90;70.39;99769.97;1719658;83;21885;-59
2023/07/02 07:02:37;;;;;;;8.13;6.40;;;;;;;25.94;70.40;99769.68;1719104;82;21703;-60
2023/07/02 07:05:43;;;;;;;8.53;6.95;;;;;;;25.96;70.31;99774.41;1735055;82;21324;-62
2023/07/02 07:08:51;;;;;;;7.55;6.70;;;;;;;25.97;70.22;99769.91;1737047;81;21208;-59
2023/07/02 07:11:57;;;;;;;6.70;5.90;;;;;;;25.97;70.17;99764.89;1734935;82;21207;-61
2023/07/02 07:15:05;;;;;;;7.72;6.17;;;;;;;26.01;70.03;99770.20;1721188;83;21383;-59
2023/07/02 07:18:11;;;;;;;7.87;6.20;;;;;;;26.05;69.87;99772.72;1705492;83;21359;-59
2023/07/02 07:21:18;;;;;;;6.90;6.20;;;;;;;26.06;69.76;99779.44;1721269;80;21975;-62
2023/07/02 07:24:25;;;;;;;7.30;6.55;;;;;;;26.09;69.66;99779.41;1706046;83;21361;-59
2023/07/02 07:27:31;;;;;;;8.18;6.60;;;;;;;26.12;69.51;99776.02;1721422;83;21359;-60
2023/07/02 07:30:38;;;;;;;7.47;6.78;;;;;;;26.14;69.43;99775.17;1705976;83;21211;-62
2023/07/02 07:33:45;;;;;;;9.83;6.90;;;;;;;26.20;69.35;99778.20;1729250;82;21219;-60
2023/07/02 07:36:51;;;;;;;7.20;6.25;;;;;;;26.25;69.23;99783.22;1705908;84;21421;-59
2023/07/02 07:39:58;;;;;;;8.75;6.30;;;;;;;26.27;69.06;99780.13;1721071;82;21256;-59
2023/07/02 07:43:05;;;;;;;8.70;6.50;;;;;;;26.31;68.92;99782.60;1705766;84;21219;-60
2023/07/02 07:46:14;;;;;;;7.50;6.17;;;;;;;26.36;68.78;99786.77;1721228;83;21387;-60
2023/07/02 07:49:21;;;;;;;8.55;6.03;;;;;;;26.38;68.61;99784.52;1705748;83;21263;-61
2023/07/02 07:52:28;;;;;;;6.87;5.78;;;;;;;26.43;68.47;99780.27;1720969;83;21323;-60
2023/07/02 07:55:35;;;;;;;7.33;5.40;;;;;;;26.49;68.26;99776.28;1705741;83;21259;-60
2023/07/02 07:58:42;;;;;;;7.00;5.83;;;;;;;26.55;68.06;99784.92;1723583;82;21194;-60
2023/07/02 08:01:48;;;;;;;5.75;5.15;;;;;;;26.59;67.84;99786.02;1719565;83;21234;-59
2023/07/02 08:04:56;;;;;;;7.00;5.58;;;;;;;26.64;67.72;99778.97;1718878;83;21210;-61
2023/07/02 08:08:03;;;;;;;5.70;5.10;;;;;;;26.67;67.54;99775.56;1719819;83;21364;-60
2023/07/02 08:11:11;;;;;;;6.28;5.55;;;;;;;26.74;67.42;99779.44;1718834;83;21746;-61
2023/07/02 08:14:22;;;;;;;5.95;5.35;;;;;;;26.78;67.23;99771.55;1702793;83;21231;-61
2023/07/02 08:17:26;;;;;;;9.48;5.35;;;;;;;26.88;67.04;99780.44;1719207;83;21293;-60
2023/07/02 08:20:32;;;;;;;9.50;5.20;;;;;;;26.97;66.84;99780.89;1718701;83;21221;-59
2023/07/02 08:23:38;;;;;;;7.97;5.75;;;;;;;27.06;66.62;99783.31;1703602;84;21218;-60
2023/07/02 08:26:45;;;;;;;8.73;5.92;;;;;;;27.12;66.45;99782.11;1765289;81;21185;-60
2023/07/02 08:29:53;;;;;;;5.97;5.35;;;;;;;27.17;66.29;99775.03;1735854;81;21764;-61
2023/07/02 08:33:00;;;;;;;9.08;5.60;;;;;;;27.23;66.06;99776.64;1735930;81;21207;-60
2023/07/02 08:36:06;;;;;;;7.42;5.40;;;;;;;27.30;65.87;99785.59;1736370;81;21188;-61
2023/07/02 08:39:11;;;;;;;5.90;4.92;;;;;;;27.36;65.74;99781.58;1735596;82;21756;-60
2023/07/02 08:42:18;;;;;;;5.67;5.08;;;;;;;27.43;65.48;99786.25;1736282;81;21704;-60
2023/07/02 08:45:26;;;;;;;5.62;4.83;;;;;;;27.50;65.29;99781.11;1764071;79;21164;-60
2023/07/02 08:48:33;;;;;;;6.97;5.40;;;;;;;27.58;65.13;99780.45;1765523;81;22004;-59
2023/07/02 08:51:39;;;;;;;8.63;5.60;;;;;;;27.66;64.86;99783.14;1765877;79;21206;-61
2023/07/02 08:54:47;;;;;;;6.30;4.97;;;;;;;27.69;64.56;99777.76;1766703;79;21191;-59
2023/07/02 08:58:01;;;;;;;5.83;5.03;;;;;;;27.76;64.38;99776.83;1766423;79;21231;-60
2023/07/02 09:01:19;;;;;;;6.60;4.97;;;;;;;27.85;64.27;99773.59;1766269;80;21200;-59
2023/07/02 09:04:28;;;;;;;7.12;5.08;;;;;;;27.92;63.85;99769.59;1766370;81;21251;-59
2023/07/02 09:07:35;;;;;;;9.40;4.87;;;;;;;27.97;63.63;99776.55;1765037;79;21187;-61
2023/07/02 09:10:41;;;;;;;5.12;4.62;;;;;;;28.01;63.44;99770.56;1745420;81;21397;-61
2023/07/02 09:13:58;;;;;;;7.80;5.05;;;;;;;28.09;63.35;99775.52;1766884;79;21192;-60
2023/07/02 09:17:17;;;;;;;6.40;4.80;;;;;;;28.19;63.08;99772.55;1766602;81;21741;-60
2023/07/02 09:20:23;;;;;;;7.00;4.42;;;;;;;28.27;62.85;99774.11;1766201;81;21207;-60
2023/07/02 09:23:29;;;;;;;6.55;4.58;;;;;;;28.34;62.48;99771.72;1786610;78;21228;-61
2023/07/02 09:26:38;;;;;;;11.33;4.55;;;;;;;28.41;62.24;99760.07;1801997;79;21335;-61
2023/07/02 09:29:44;;;;;;;5.87;4.75;;;;;;;28.51;62.04;99775.42;1801455;79;21418;-58
2023/07/02 09:32:54;;;;;;;5.78;4.47;;;;;;;28.59;61.75;99767.09;1801736;79;21393;-58
2023/07/02 09:36:00;;;;;;;7.10;4.70;;;;;;;28.65;61.48;99763.63;1801333;78;21193;-61
2023/07/02 09:39:06;;;;;;;6.03;5.00;;;;;;;28.71;61.18;99763.22;1801319;79;21355;-61
2023/07/02 09:42:19;;;;;;;6.65;4.42;;;;;;;28.85;60.98;99759.01;1801786;79;21351;-60
2023/07/02 09:45:26;;;;;;;5.42;4.12;;;;;;;28.95;60.64;99757.42;1802136;79;21347;-58
2023/07/02 09:48:34;;;;;;;6.45;4.35;;;;;;;29.01;60.27;99757.57;1795128;79;21335;-60
2023/07/02 09:51:40;;;;;;;6.78;3.85;;;;;;;29.11;60.04;99758.23;1801583;79;21336;-60
2023/07/02 09:54:48;;;;;;;6.40;4.42;;;;;;;29.19;59.71;99753.87;1802297;79;21382;-59
2023/07/02 09:57:54;;;;;;;4.67;4.20;;;;;;;29.28;59.39;99752.55;1795314;79;21841;-61
2023/07/02 10:01:00;;;;;;;7.37;4.47;;;;;;;29.43;59.16;99749.41;1802780;79;21335;-60
2023/07/02 10:04:09;;;;;;;4.87;4.37;;;;;;;29.67;58.45;99749.45;1802328;79;21347;-61
2023/07/02 10:07:15;;;;;;;5.17;4.22;;;;;;;29.78;58.10;99743.83;1795147;79;21343;-60
2023/07/02 10:10:20;;;;;;;5.35;4.67;;;;;;;29.78;58.10;99743.83;1802071;78;21853;-59
2023/07/02 10:13:37;;;;;;;8.65;4.97;;;;;;;29.85;57.82;99738.60;1802165;79;21387;-61
2023/07/02 10:17:01;;;;;;;5.53;3.83;;;;;;;29.96;57.49;99740.59;1802048;79;21394;-59
2023/07/02 10:20:12;;;;;;;5.33;4.00;;;;;;;30.09;57.23;99744.80;1802338;78;21837;-60
2023/07/02 10:23:19;;;;;;;8.53;4.90;;;;;;;30.20;56.85;99747.63;1800776;78;21870;-60
2023/07/02 10:26:26;;;;;;;5.47;4.75;;;;;;;30.29;56.40;99745.73;1802057;79;21856;-59
2023/07/02 10:29:34;;;;;;;6.55;4.50;;;;;;;30.34;56.03;99749.00;1801959;79;21398;-61
2023/07/02 10:32:41;;;;;;;6.58;5.92;;;;;;;30.36;55.64;99746.70;1802451;79;21351;-61
2023/07/02 10:35:49;;;;;;;5.65;3.95;;;;;;;30.42;55.35;99737.77;1794833;79;21367;-60
2023/07/02 10:38:56;;;;;;;5.47;4.33;;;;;;;30.43;54.90;99744.23;1801850;79;21368;-60
2023/07/02 10:42:14;;;;;;;7.00;4.70;;;;;;;30.45;54.67;99737.13;1802099;78;21821;-59
2023/07/02 10:45:22;;;;;;;5.75;4.95;;;;;;;30.51;54.41;99734.98;1802002;79;21387;-60
2023/07/02 10:48:27;;;;;;;6.20;5.30;;;;;;;30.51;54.15;99740.08;1791925;79;21390;-59
2023/07/02 10:51:32;;;;;;;6.17;5.08;;;;;;;30.58;53.94;99729.73;1778289;79;21245;-60
2023/07/02 10:54:52;;;;;;;6.55;5.65;;;;;;;30.60;53.65;99725.41;1735372;81;21206;-59
2023/07/02 10:58:17;;;;;;;6.55;5.22;;;;;;;30.73;53.49;99719.44;1735613;82;21741;-61
2023/07/02 11:01:36;;;;;;;5.62;4.90;;;;;;;30.88;53.21;99718.19;1721459;83;21363;-61
2023/07/02 11:04:43;;;;;;;6.33;5.10;;;;;;;30.98;52.94;99713.11;1719927;83;21230;-58
2023/07/02 11:07:57;;;;;;;6.28;5.60;;;;;;;31.04;52.69;99723.67;1770006;79;21196;-58
2023/07/02 11:11:16;;;;;;;10.88;9.13;;;;;;;31.11;52.48;99718.39;1770408;79;21202;-60
2023/07/02 11:14:16;;;;;;;8.73;5.70;;;;;;;31.20;52.18;99719.25;1735970;82;21215;-59
2023/07/02 11:17:23;;;;;;;7.45;5.47;;;;;;;31.25;51.76;99716.28;1735425;81;21212;-61
2023/07/02 11:20:29;;;;;;;6.03;4.85;;;;;;;31.27;51.45;99713.36;1721203;83;21957;-58
2023/07/02 11:23:35;;;;;;;6.65;5.65;;;;;;;31.31;51.16;99715.84;1718614;83;21634;-61
2023/07/02 11:26:49;;;;;;;7.65;5.50;;;;;;;31.33;50.90;99715.50;1769605;79;21359;-59
2023/07/02 11:29:55;;;;;;;6.62;4.80;;;;;;;31.38;50.73;99712.53;1770404;79;21866;-60
2023/07/02 11:33:01;;;;;;;6.05;5.28;;;;;;;31.44;50.44;99701.30;1771016;81;21358;-60
2023/07/02 11:36:08;;;;;;;6.00;5.40;;;;;;;31.51;50.15;99702.47;1769579;79;21227;-57
2023/07/02 11:39:17;;;;;;;6.15;4.97;;;;;;;31.50;49.84;99702.23;1769580;81;21421;-59
2023/07/02 11:42:25;;;;;;;6.87;4.95;;;;;;;31.52;49.69;99697.09;1770961;81;21335;-60
2023/07/02 11:45:31;;;;;;;6.42;4.70;;;;;;;31.58;49.46;99697.17;1771037;79;21209;-55
2023/07/02 11:48:37;;;;;;;8.80;4.80;;;;;;;31.65;49.23;99683.95;1767168;80;21347;-57
2023/07/02 11:51:49;;;;;;;6.40;4.55;;;;;;;31.73;49.05;99691.62;1771451;81;21374;-58
2023/07/02 11:54:56;;;;;;;8.40;4.70;;;;;;;31.79;48.86;99688.87;1769461;80;21342;-57
2023/07/02 11:58:01;;;;;;;9.20;4.25;;;;;;;31.86;48.62;99677.32;1771653;81;21343;-55
2023/07/02 12:01:07;;;;;;;5.20;3.85;;;;;;;31.94;48.32;99669.98;1768860;79;21347;-57
2023/07/02 12:04:14;;;;;;;5.75;4.20;;;;;;;31.96;47.95;99677.00;1771501;81;21355;-57
2023/07/02 12:07:20;;;;;;;7.67;3.95;;;;;;;31.92;47.60;99676.59;1771509;79;21450;-56
2023/07/02 12:10:25;;;;;;;5.55;3.60;;;;;;;31.89;47.35;99678.64;1773470;79;21224;-57
2023/07/02 12:13:35;;;;;;;4.75;3.70;;;;;;;31.89;47.05;99672.97;1777341;79;21339;-58
2023/07/02 12:16:41;;;;;;;6.30;4.00;;;;;;;31.87;46.71;99665.42;1734484;81;21725;-57
2023/07/02 12:19:47;;;;;;;5.75;3.40;;;;;;;31.75;46.37;99670.29;1734730;82;21624;-56
2023/07/02 12:22:54;;;;;;;6.58;4.15;;;;;;;31.63;46.10;99669.28;1733998;82;21754;-58
2023/07/02 12:26:01;;;;;;;9.33;4.30;;;;;;;31.59;45.98;99662.61;1768295;80;21379;-57
2023/07/02 12:29:06;;;;;;;4.53;3.20;;;;;;;31.62;45.77;99664.20;1769328;81;21269;-58
2023/07/02 12:32:13;;;;;;;4.87;2.90;;;;;;;31.68;45.60;99667.11;1769519;79;21225;-58
2023/07/02 12:35:19;;;;;;;5.58;3.17;;;;;;;31.73;45.35;99667.55;1734445;82;21765;-57
2023/07/02 12:38:24;;;;;;;4.12;3.08;;;;;;;31.71;45.03;99669.88;1734882;82;21542;-56
2023/07/02 12:41:30;;;;;;;5.85;3.40;;;;;;;31.67;44.78;99668.28;1734622;82;21208;-57
2023/07/02 12:44:37;;;;;;;4.65;3.60;;;;;;;31.69;44.60;99662.29;1734926;82;21199;-58
2023/07/02 12:47:43;;;;;;;7.37;3.87;;;;;;;31.62;44.36;99670.46;1735466;82;21280;-57
2023/07/02 12:50:51;;;;;;;3.85;2.70;;;;;;;31.57;44.15;99671.43;1735216;81;21748;-58
2023/07/02 12:53:57;;;;;;;4.55;3.25;;;;;;;31.69;44.11;99667.95;1763571;81;21343;-55
2023/07/02 12:57:06;;;;;;;5.70;3.05;;;;;;;31.85;43.93;99676.23;1770724;80;21220;-53
2023/07/02 13:00:13;;;;;;;5.70;2.92;;;;;;;31.92;43.70;99673.75;1770331;79;21228;-54
2023/07/02 13:03:23;;;;;;;4.87;3.37;;;;;;;31.91;43.34;99669.23;1735281;82;21857;-54
2023/07/02 13:06:34;;;;;;;6.62;2.80;;;;;;;31.84;43.00;99670.34;1735275;81;21220;-54
2023/07/02 13:09:40;;;;;;;4.10;3.20;;;;;;;31.69;42.72;99670.78;1735380;81;21275;-54
2023/07/02 13:12:47;;;;;;;5.33;2.87;;;;;;;31.68;42.66;99668.52;1735381;81;21239;-54
2023/07/02 13:15:55;;;;;;;6.10;3.58;;;;;;;31.66;42.52;99670.88;1734456;81;21203;-54
2023/07/02 13:19:02;;;;;;;4.00;3.47;;;;;;;31.63;42.38;99667.88;1734565;82;21821;-54
2023/07/02 13:22:08;;;;;;;6.33;3.42;;;;;;;31.62;42.25;99665.61;1734225;82;21196;-54
2023/07/02 13:25:13;;;;;;;5.33;3.22;;;;;;;31.69;42.28;99667.95;1734282;81;21618;-54
2023/07/02 13:28:21;;;;;;;6.22;3.12;;;;;;;31.70;42.06;99668.19;1717279;81;21204;-54
2023/07/02 13:31:27;;;;;;;5.95;3.90;;;;;;;31.69;42.01;99670.78;1734759;82;21259;-55
2023/07/02 13:34:33;;;;;;;7.50;3.50;;;;;;;31.60;41.83;99665.70;1735306;81;21211;-54
2023/07/02 13:37:40;;;;;;;8.50;6.45;;;;;;;31.44;41.67;99667.34;1735046;82;21211;-53
2023/07/02 13:40:47;;;;;;;5.45;4.58;;;;;;;31.29;41.61;99662.95;1734969;82;21737;-53
2023/07/02 13:43:53;;;;;;;5.78;3.90;;;;;;;31.12;41.60;99667.73;1693983;82;21192;-54
2023/07/02 13:46:58;;;;;;;5.40;3.55;;;;;;;30.95;41.59;99664.85;1725879;83;21245;-53
2023/07/02 13:50:04;;;;;;;7.45;3.90;;;;;;;30.79;41.59;99666.44;1727525;81;21206;-53
2023/07/02 13:53:10;;;;;;;9.38;4.90;;;;;;;30.62;41.63;99665.17;1729184;81;21255;-53
2023/07/02 13:56:17;;;;;;;6.85;4.17;;;;;;;30.49;41.73;99668.91;1730018;82;21194;-53
2023/07/02 13:59:25;;;;;;;5.60;3.75;;;;;;;30.39;41.88;99672.03;1739979;80;21226;-53
2023/07/02 14:02:32;;;;;;;12.13;7.15;;;;;;;30.30;42.04;99664.06;1716663;82;21745;-53
2023/07/02 14:05:38;;;;;;;67.27;40.35;;;;;;;30.32;42.15;99658.94;1726165;83;21245;-54
2023/07/02 14:08:44;;;;;;;19.23;12.68;;;;;;;30.47;42.39;99655.71;1711542;82;21200;-52
2023/07/02 14:11:50;;;;;;;16.32;7.58;;;;;;;30.62;42.45;99659.52;1740069;81;21241;-54
2023/07/02 14:14:56;;;;;;;205.20;98.60;;;;;;;30.74;42.48;99646.77;1747578;81;21219;-54
2023/07/02 14:18:02;;;;;;;115.08;54.20;;;;;;;30.97;42.55;99649.21;1732993;81;21259;-54
2023/07/02 14:21:09;;;;;;;49.15;21.68;;;;;;;31.25;42.54;99638.48;1753872;80;21192;-53
2023/07/02 14:24:15;;;;;;;61.15;30.52;;;;;;;31.47;42.40;99638.38;1734133;82;21227;-53
2023/07/02 14:27:24;;;;;;;41.92;19.48;;;;;;;31.59;42.28;99624.39;1740299;81;21762;-54
2023/07/02 14:30:35;;;;;;;7.12;5.28;;;;;;;31.68;42.13;99623.84;1769700;80;21266;-55
2023/07/02 14:33:43;;;;;;;34.35;15.65;;;;;;;31.71;41.97;99626.00;1768462;79;21337;-53